createdAt,value
2023-04-15T00:03:05.298Z,92.75
2023-04-15T00:07:06.876Z,92.09
2023-04-15T00:11:08.252Z,91.83
2023-04-15T00:15:11.333Z,91.59
2023-04-15T00:19:13.163Z,91.50
2023-04-15T00:23:14.511Z,91.56
2023-04-15T00:27:15.866Z,91.19
2023-04-15T00:31:18.764Z,91.68
2023-04-15T00:35:20.145Z,91.17
2023-04-15T00:39:22.514Z,91.41
2023-04-15T00:43:23.858Z,91.06
2023-04-15T00:47:27.620Z,91.19
2023-04-15T00:51:29.007Z,90.12
2023-04-15T00:55:30.449Z,90.61
2023-04-15T00:59:33.250Z,90.44
2023-04-15T01:03:36.153Z,90.75
2023-04-15T01:07:37.798Z,90.30
2023-04-15T01:11:39.356Z,90.40
2023-04-15T01:15:40.854Z,90.36
2023-04-15T01:19:43.576Z,90.64
2023-04-15T01:23:46.791Z,90.61
2023-04-15T01:27:49.533Z,90.93
2023-04-15T01:31:51.339Z,90.45
2023-04-15T01:35:52.840Z,90.40
2023-04-15T01:39:54.292Z,89.87
2023-04-15T01:43:57.032Z,89.83
2023-04-15T01:47:58.430Z,89.94
2023-04-15T01:51:59.831Z,89.74
2023-04-15T01:56:01.440Z,89.45
2023-04-15T02:00:04.759Z,89.45
2023-04-15T02:04:06.243Z,89.35
2023-04-15T02:08:07.615Z,89.69
2023-04-15T02:12:09.440Z,89.47
2023-04-15T02:16:18.618Z,88.80
2023-04-15T02:20:20.046Z,88.56
2023-04-15T02:24:21.411Z,89.04
2023-04-15T02:28:22.777Z,89.77
2023-04-15T02:32:25.578Z,89.66
2023-04-15T02:36:26.969Z,89.33
2023-04-15T02:40:28.326Z,88.64
2023-04-15T02:44:29.691Z,87.95
2023-04-15T02:48:32.480Z,89.40
2023-04-15T02:52:33.866Z,89.63
2023-04-15T02:56:35.235Z,89.78
2023-04-15T03:00:36.628Z,89.97
2023-04-15T03:04:39.327Z,90.28
2023-04-15T03:08:40.713Z,90.24
2023-04-15T03:12:42.130Z,89.91
2023-04-15T03:16:43.521Z,90.48
2023-04-15T03:20:46.275Z,90.24
2023-04-15T03:24:47.677Z,90.12
2023-04-15T03:28:49.046Z,90.72
2023-04-15T03:32:50.448Z,91.16
2023-04-15T03:36:53.443Z,91.59
2023-04-15T03:40:54.767Z,91.50
2023-04-15T03:44:56.095Z,91.66
2023-04-15T03:48:57.416Z,91.92
2023-04-15T03:53:00.101Z,92.50
2023-04-15T03:57:01.483Z,92.65
2023-04-15T04:01:02.889Z,92.83
2023-04-15T04:05:04.476Z,92.10
2023-04-15T04:09:07.320Z,92.72
2023-04-15T04:13:08.711Z,92.58
2023-04-15T04:17:10.157Z,92.25
2023-04-15T04:21:11.595Z,92.57
2023-04-15T04:25:14.358Z,92.95
2023-04-15T04:29:15.754Z,91.71
2023-04-15T04:33:17.090Z,91.16
2023-04-15T04:37:18.418Z,90.90
2023-04-15T04:41:21.098Z,90.96
2023-04-15T04:45:22.420Z,91.69
2023-04-15T04:49:23.764Z,92.00
2023-04-15T04:53:25.218Z,91.95
2023-04-15T04:57:27.919Z,91.83
2023-04-15T05:01:29.261Z,91.97
2023-04-15T05:05:30.614Z,91.96
2023-04-15T05:09:31.983Z,92.43
2023-04-15T05:13:34.691Z,92.35
2023-04-15T05:17:36.083Z,92.17
2023-04-15T05:21:39.433Z,91.65
2023-04-15T05:25:40.942Z,91.74
2023-04-15T05:29:43.624Z,91.50
2023-04-15T05:33:44.986Z,90.86
2023-04-15T05:37:46.323Z,90.93
2023-04-15T05:41:47.647Z,90.33
2023-04-15T05:45:50.424Z,90.18
2023-04-15T05:49:51.792Z,90.65
2023-04-15T05:53:53.142Z,90.92
2023-04-15T05:57:54.556Z,90.20
2023-04-15T06:01:57.289Z,90.91
2023-04-15T06:05:58.695Z,90.98
2023-04-15T06:10:00.028Z,90.29
2023-04-15T06:14:01.454Z,91.06
2023-04-15T06:18:04.189Z,91.59
2023-04-15T06:22:05.521Z,90.51
2023-04-15T06:26:07.087Z,90.00
2023-04-15T06:30:08.901Z,89.11
2023-04-15T06:34:11.610Z,89.24
2023-04-15T06:38:12.928Z,88.93
2023-04-15T06:42:14.364Z,89.30
2023-04-15T06:46:15.791Z,89.31
2023-04-15T06:50:18.667Z,89.49
2023-04-15T06:54:20.062Z,89.08
2023-04-15T06:58:21.463Z,88.52
2023-04-15T07:02:23.106Z,88.16
2023-04-15T07:06:25.877Z,88.33
2023-04-15T07:10:27.233Z,87.72
2023-04-15T07:14:28.660Z,87.26
2023-04-15T07:18:30.031Z,87.90
2023-04-15T07:22:32.869Z,87.85
2023-04-15T07:26:34.183Z,87.88
2023-04-15T07:30:35.569Z,87.10
2023-04-15T07:34:36.983Z,87.72
2023-04-15T07:38:39.695Z,87.33
2023-04-15T07:42:41.521Z,87.73
2023-04-15T07:46:43.143Z,87.03
2023-04-15T07:50:44.603Z,87.16
2023-04-15T07:54:47.307Z,86.89
2023-04-15T07:58:48.627Z,87.25
2023-04-15T08:02:50.226Z,87.03
2023-04-15T08:06:51.717Z,86.37
2023-04-15T08:10:54.399Z,86.86
2023-04-15T08:14:55.772Z,87.01
2023-04-15T08:18:57.265Z,86.98
2023-04-15T08:22:58.686Z,87.23
2023-04-15T08:27:01.372Z,87.35
2023-04-15T08:31:03.927Z,86.67
2023-04-15T08:35:05.674Z,86.39
2023-04-15T08:39:06.993Z,86.52
2023-04-15T08:43:11.018Z,87.11
2023-04-15T08:47:13.519Z,87.48
2023-04-15T08:51:15.556Z,87.05
2023-04-15T08:55:17.262Z,86.83
2023-04-15T08:59:20.097Z,87.98
2023-04-15T09:03:22.221Z,86.96
2023-04-15T09:07:23.668Z,88.04
2023-04-15T09:11:25.000Z,88.70
2023-04-15T09:15:27.734Z,88.22
2023-04-15T09:19:29.179Z,88.20
2023-04-15T09:23:30.585Z,87.76
2023-04-15T09:27:36.118Z,88.45
2023-04-15T09:31:39.102Z,88.02
2023-04-15T09:35:40.434Z,87.62
2023-04-15T09:39:48.490Z,88.24
2023-04-15T09:43:49.850Z,87.57
2023-04-15T09:47:52.595Z,88.05
2023-04-15T09:52:05.086Z,87.29
2023-04-15T09:56:07.815Z,87.39
2023-04-15T10:00:09.580Z,87.69
2023-04-15T10:04:12.378Z,87.35
2023-04-15T10:08:14.778Z,87.45
2023-04-15T10:12:16.957Z,87.04
2023-04-15T10:16:19.932Z,86.92
2023-04-15T10:20:23.045Z,85.61
2023-04-15T10:24:25.269Z,85.07
2023-04-15T10:28:26.783Z,84.51
2023-04-15T10:32:28.296Z,83.68
2023-04-15T10:36:31.003Z,82.44
2023-04-15T10:40:32.845Z,82.77
2023-04-15T10:44:35.517Z,82.12
2023-04-15T10:48:36.910Z,81.30
2023-04-15T10:52:41.154Z,80.93
2023-04-15T10:56:42.654Z,80.72
2023-04-15T11:00:50.091Z,80.68
2023-04-15T11:04:51.975Z,80.41
2023-04-15T11:08:55.434Z,79.79
2023-04-15T11:12:57.801Z,79.39
2023-04-15T11:16:59.145Z,79.92
2023-04-15T11:21:01.656Z,79.72
2023-04-15T11:25:04.815Z,79.18
2023-04-15T11:29:06.559Z,78.97
2023-04-15T11:33:09.263Z,78.05
2023-04-15T11:37:10.741Z,76.64
2023-04-15T11:41:13.569Z,78.36
2023-04-15T11:45:15.888Z,76.96
2023-04-15T11:49:26.135Z,75.96
2023-04-15T11:53:36.393Z,77.25
2023-04-15T11:57:39.095Z,77.72
2023-04-15T12:01:40.992Z,79.00
2023-04-15T12:06:00.857Z,79.55
2023-04-15T12:10:03.055Z,79.29
2023-04-15T12:14:07.311Z,77.94
2023-04-15T12:18:16.540Z,78.98
2023-04-15T12:22:18.188Z,78.93
2023-04-15T12:26:25.856Z,79.05
2023-04-15T12:30:28.574Z,78.83
2023-04-15T12:34:30.989Z,79.60
2023-04-15T12:38:32.361Z,79.44
2023-04-15T12:42:33.680Z,78.94
2023-04-15T12:46:36.429Z,78.53
2023-04-15T12:50:37.819Z,79.71
2023-04-15T12:54:39.270Z,79.73
2023-04-15T12:58:40.599Z,80.58
2023-04-15T13:02:44.788Z,77.94
2023-04-15T13:06:46.351Z,79.63
2023-04-15T13:10:47.695Z,80.20
2023-04-15T13:14:49.020Z,81.71
2023-04-15T13:18:51.752Z,81.05
2023-04-15T13:22:53.304Z,82.22
2023-04-15T13:26:54.682Z,82.25
2023-04-15T13:30:56.026Z,82.47
2023-04-15T13:34:58.722Z,83.75
2023-04-15T13:39:00.450Z,83.70
2023-04-15T13:43:01.809Z,83.10
2023-04-15T13:47:03.206Z,83.63
2023-04-15T13:51:06.058Z,83.83
2023-04-15T13:55:18.570Z,83.43
2023-04-15T13:59:22.026Z,82.84
2023-04-15T14:03:23.474Z,82.71
2023-04-15T14:07:26.237Z,82.08
2023-04-15T14:11:27.564Z,81.84
2023-04-15T14:15:28.902Z,81.85
2023-04-15T14:19:30.704Z,81.50
2023-04-15T14:23:33.376Z,81.10
2023-04-15T14:27:34.698Z,81.54
2023-04-15T14:31:36.027Z,81.88
2023-04-15T14:35:37.361Z,82.15
2023-04-15T14:39:40.061Z,83.26
2023-04-15T14:43:41.380Z,83.55
2023-04-15T14:47:42.801Z,83.29
2023-04-15T14:51:44.240Z,84.39
2023-04-15T14:55:46.949Z,84.72
2023-04-15T14:59:48.265Z,85.87
2023-04-15T15:03:50.123Z,87.17
2023-04-15T15:07:51.526Z,87.66
2023-04-15T15:11:54.219Z,88.09
2023-04-15T15:15:55.637Z,88.31
2023-04-15T15:19:57.279Z,87.74
2023-04-15T15:23:58.614Z,87.23
2023-04-15T15:28:01.345Z,86.19
2023-04-15T15:32:02.672Z,86.64
2023-04-15T15:36:04.485Z,85.81
2023-04-15T15:40:06.551Z,85.50
2023-04-15T15:44:09.257Z,84.90
2023-04-15T15:48:10.591Z,84.83
2023-04-15T15:52:12.059Z,84.23
2023-04-15T15:56:13.391Z,84.29
2023-04-15T16:00:16.356Z,84.97
2023-04-15T16:04:18.106Z,84.34
2023-04-15T16:08:19.599Z,85.53
2023-04-15T16:12:20.936Z,85.40
2023-04-15T16:16:23.697Z,84.36
2023-04-15T16:20:25.167Z,83.66
2023-04-15T16:24:26.744Z,83.38
2023-04-15T16:28:28.065Z,83.48
2023-04-15T16:32:30.827Z,83.29
2023-04-15T16:36:33.887Z,83.46
2023-04-15T16:40:36.610Z,83.78
2023-04-15T16:44:37.979Z,83.71
2023-04-15T16:48:40.670Z,84.01
2023-04-15T16:52:43.452Z,83.69
2023-04-15T16:56:45.194Z,83.94
2023-04-15T17:00:50.026Z,84.15
2023-04-15T17:04:52.864Z,84.37
2023-04-15T17:08:54.195Z,84.29
2023-04-15T17:12:55.913Z,84.83
2023-04-15T17:16:57.353Z,85.01
2023-04-15T17:21:00.095Z,86.41
2023-04-15T17:25:01.579Z,86.77
2023-04-15T17:29:03.166Z,86.61
2023-04-15T17:33:55.278Z,86.94
2023-04-15T17:37:28.162Z,87.01
2023-04-15T17:41:29.709Z,86.85
2023-04-15T17:45:31.056Z,87.11
2023-04-15T17:49:32.428Z,88.27
2023-04-15T17:53:35.186Z,89.54
2023-04-15T17:57:36.526Z,90.53
2023-04-15T18:01:37.892Z,89.91
2023-04-15T18:05:41.364Z,90.72
2023-04-15T18:09:45.286Z,91.21
2023-04-15T18:13:46.611Z,91.51
2023-04-15T18:17:48.280Z,91.32
2023-04-15T18:21:49.662Z,92.10
2023-04-15T18:25:52.427Z,92.01
2023-04-15T18:29:53.770Z,92.41
2023-04-15T18:33:55.174Z,92.39
2023-04-15T18:37:56.537Z,93.13
2023-04-15T18:41:59.223Z,92.83
2023-04-15T18:46:00.552Z,92.77
2023-04-15T18:50:02.019Z,92.74
2023-04-15T18:54:03.433Z,92.89
2023-04-15T18:58:08.862Z,93.18
2023-04-15T19:02:10.670Z,93.69
2023-04-15T19:06:11.981Z,93.05
2023-04-15T19:10:13.372Z,93.29
2023-04-15T19:14:17.217Z,92.92
2023-04-15T19:18:18.588Z,93.16
2023-04-15T19:22:19.950Z,92.92
2023-04-15T19:26:21.272Z,93.15
2023-04-15T19:30:24.051Z,93.66
2023-04-15T19:34:25.443Z,93.55
2023-04-15T19:38:26.762Z,93.44
2023-04-15T19:42:28.095Z,93.55
2023-04-15T19:46:30.945Z,93.82
2023-04-15T19:50:32.515Z,93.57
2023-04-15T19:54:33.859Z,93.56
2023-04-15T19:58:35.205Z,93.64
2023-04-15T20:02:38.054Z,92.00
2023-04-15T20:06:39.423Z,91.76
2023-04-15T20:10:40.831Z,92.49
2023-04-15T20:14:42.175Z,92.95
2023-04-15T20:18:44.884Z,92.90
2023-04-15T20:22:46.435Z,93.01
2023-04-15T20:26:47.749Z,92.81
2023-04-15T20:30:49.111Z,92.81
2023-04-15T20:34:51.806Z,92.29
2023-04-15T20:38:53.123Z,92.88
2023-04-15T20:42:54.443Z,93.19
2023-04-15T20:46:55.943Z,93.49
2023-04-15T20:50:58.657Z,93.61
2023-04-15T20:55:00.038Z,94.07
2023-04-15T20:59:01.534Z,94.18
2023-04-15T21:03:03.493Z,94.46
2023-04-15T21:07:06.377Z,94.46
2023-04-15T21:11:07.737Z,94.75
2023-04-15T21:15:09.513Z,94.90
2023-04-15T21:19:10.891Z,94.48
2023-04-15T21:23:13.611Z,94.95
2023-04-15T21:27:14.971Z,94.77
2023-04-15T21:31:16.366Z,95.19
2023-04-15T21:35:17.714Z,95.00
2023-04-15T21:39:20.391Z,94.55
2023-04-15T21:43:21.715Z,94.96
2023-04-15T21:47:23.118Z,94.97
2023-04-15T21:51:24.661Z,95.61
2023-04-15T21:55:27.407Z,95.93
2023-04-15T21:59:28.780Z,96.39
2023-04-15T22:03:30.867Z,95.58
2023-04-15T22:07:32.389Z,95.03
2023-04-15T22:11:35.101Z,94.78
2023-04-15T22:15:36.655Z,95.65
2023-04-15T22:19:37.995Z,95.75
2023-04-15T22:23:39.325Z,95.11
2023-04-15T22:27:42.056Z,95.46
2023-04-15T22:31:43.436Z,95.12
2023-04-15T22:35:44.811Z,96.04
2023-04-15T22:39:46.184Z,96.14
2023-04-15T22:43:48.856Z,96.55
2023-04-15T22:47:50.343Z,96.03
2023-04-15T22:51:51.701Z,95.80
2023-04-15T22:55:53.033Z,95.51
2023-04-15T22:59:55.735Z,95.53
2023-04-15T23:04:06.504Z,96.46
2023-04-15T23:08:18.359Z,96.78
2023-04-15T23:12:19.719Z,97.03
2023-04-15T23:16:22.852Z,96.09
2023-04-15T23:20:24.272Z,96.03
2023-04-15T23:24:25.618Z,96.72
2023-04-15T23:28:26.949Z,96.09
2023-04-15T23:32:29.677Z,96.37
2023-04-15T23:36:31.019Z,97.03
2023-04-15T23:40:32.338Z,96.81
2023-04-15T23:44:33.699Z,96.63
2023-04-15T23:48:36.394Z,95.94
2023-04-15T23:52:37.736Z,96.04
2023-04-15T23:56:39.083Z,96.57
